This is the latest recevied weather packets stored in our database for station/object W6JCZ-13. If no packets are shown the sender has not sent any weather packets the latest 10 day(s).
| Time | Temp. | Humidity | Pressure | Rain* | Wind** | Luminosity | Snow |
|---|---|---|---|---|---|---|---|
| 1777578017 | 26.67° C | 45% | 1011.5 hPa | 0 mm | - | - | - |
| 1777577417 | 26.67° C | 44% | 1011.7 hPa | 0 mm | - | - | - |
| 1777576817 | 26.11° C | 44% | 1011.8 hPa | 0 mm | - | - | - |
| 1777576218 | 26.11° C | 48% | 1011.9 hPa | 0 mm | - | - | - |
| 1777575617 | 25.56° C | 47% | 1012.1 hPa | 0 mm | - | - | - |
| 1777575017 | 24.44° C | 56% | 1012.1 hPa | 0 mm | - | - | - |
| 1777574417 | 24.44° C | 50% | 1012.3 hPa | 0 mm | - | - | - |
| 1777573817 | 23.33° C | 55% | 1012.4 hPa | 0 mm | - | - | - |
| 1777573217 | 23.33° C | 53% | 1012.5 hPa | 0 mm | - | - | - |
| 1777572617 | 22.78° C | 55% | 1012.6 hPa | 0 mm | - | - | - |
| 1777572017 | 22.78° C | 55% | 1012.7 hPa | 0 mm | - | - | - |
| 1777571416 | 22.22° C | 55% | 1012.7 hPa | 0 mm | - | - | - |
| 1777570817 | 21.67° C | 58% | 1012.8 hPa | 0 mm | - | - | - |
| 1777570217 | 21.11° C | 58% | 1012.8 hPa | 0 mm | - | - | - |
| 1777569617 | 21.11° C | 61% | 1012.8 hPa | 0 mm | - | - | - |
| 1777569017 | 20.56° C | 61% | 1012.8 hPa | 0 mm | - | - | - |
| 1777568416 | 20.56° C | 62% | 1012.9 hPa | 0 mm | - | - | - |
| 1777567817 | 20° C | 63% | 1013 hPa | 0 mm | - | - | - |
| 1777567217 | 19.44° C | 64% | 1012.9 hPa | 0 mm | - | - | - |
| 1777566617 | 18.89° C | 64% | 1013 hPa | 0 mm | - | - | - |
| 1777566017 | 18.33° C | 65% | 1013 hPa | 0 mm | - | - | - |
| 1777565417 | 18.33° C | 67% | 1012.9 hPa | 0 mm | - | - | - |
| 1777564817 | 17.78° C | 66% | 1012.9 hPa | 0 mm | - | - | - |
| 1777564217 | 17.22° C | 69% | 1012.9 hPa | 0 mm | - | - | - |
| 1777563617 | 16.67° C | 70% | 1012.9 hPa | 0 mm | - | - | - |
* Rain latest hour (hover to see other rain measurements)
** Current wind speed in m/s (hover to see current wind gust speed)